Time;durP1;ratioP1;P1;durP2;ratioP2;P2;SDS_P1;SDS_P2;PMS_P1;PMS_P2;Temp;Humidity;BMP_temperature;BMP_pressure;BME280_temperature;BME280_humidity;BME280_pressure;Samples;Min_cycle;Max_cycle;Signal;HPM_P1;HPM_P2
2021/06/20 00:00:49;;;;;;;18.50;16.57;;;19.20;99.90;18.80;96662.00;;;;5075429;28;20219;-89
2021/06/20 00:03:38;;;;;;;19.10;17.30;;;19.10;99.90;18.80;96663.00;;;;5075499;28;20200;-86
2021/06/20 00:06:32;;;;;;;17.93;16.30;;;19.10;99.90;18.80;96665.00;;;;5072127;28;20202;-90
2021/06/20 00:09:22;;;;;;;20.00;17.90;;;19.10;99.90;18.70;96662.00;;;;5073998;28;20204;-87
2021/06/20 00:12:12;;;;;;;19.33;17.37;;;19.00;99.90;18.60;96659.00;;;;5083871;28;20211;-85
2021/06/20 00:15:01;;;;;;;20.37;17.40;;;19.00;99.90;18.60;96659.00;;;;5096058;28;20203;-86
2021/06/20 00:17:51;;;;;;;17.87;16.17;;;18.90;99.90;18.50;96655.00;;;;5092641;28;20201;-89
2021/06/20 00:20:43;;;;;;;20.67;18.20;;;18.90;99.90;18.40;96661.00;;;;5074932;28;20204;-85
2021/06/20 00:23:32;;;;;;;22.07;19.07;;;18.80;99.90;18.60;96657.00;;;;5074902;28;20245;-86
2021/06/20 00:26:22;;;;;;;19.30;17.47;;;18.80;99.90;18.70;96657.00;;;;5073848;28;20200;-84
2021/06/20 00:29:11;;;;;;;18.47;16.77;;;18.80;99.90;18.70;96649.00;;;;5075823;28;20226;-85
2021/06/20 00:32:00;;;;;;;19.37;17.57;;;18.80;99.90;18.80;96645.00;;;;5073271;28;20705;-85
2021/06/20 00:34:49;;;;;;;19.27;17.03;;;18.80;99.90;18.60;96643.00;;;;5083248;28;20195;-85
2021/06/20 00:37:38;;;;;;;19.67;17.77;;;18.80;99.90;18.60;96641.00;;;;5098245;28;20211;-84
2021/06/20 00:40:28;;;;;;;18.87;16.87;;;18.80;99.90;18.70;96633.00;;;;5095005;28;20199;-85
2021/06/20 00:43:19;;;;;;;17.97;16.27;;;18.80;99.90;18.70;96633.00;;;;5077131;28;20224;-85
2021/06/20 00:46:09;;;;;;;18.27;16.27;;;18.90;99.90;18.70;96633.00;;;;5084248;28;20231;-84
2021/06/20 00:48:58;;;;;;;18.93;16.93;;;18.80;99.90;18.70;96629.00;;;;5095836;28;20233;-84
2021/06/20 00:51:48;;;;;;;21.23;17.83;;;18.80;99.90;18.60;96634.00;;;;5091352;28;20215;-87
2021/06/20 00:54:37;;;;;;;19.03;17.23;;;18.80;99.90;18.50;96644.00;;;;5096661;28;20206;-88
2021/06/20 00:57:26;;;;;;;19.80;17.80;;;18.80;99.90;18.50;96630.00;;;;5095845;28;20581;-85
2021/06/20 01:00:17;;;;;;;20.43;18.03;;;18.80;99.90;18.50;96637.00;;;;5091248;28;20208;-85
2021/06/20 01:03:07;;;;;;;20.80;18.57;;;18.80;99.90;18.40;96633.00;;;;5074168;28;20633;-85
2021/06/20 01:05:57;;;;;;;19.23;17.33;;;18.70;99.90;18.30;96622.00;;;;5087006;28;20525;-87
2021/06/20 01:08:46;;;;;;;19.37;17.27;;;18.70;99.90;18.20;96626.00;;;;5087284;28;20230;-85
2021/06/20 01:11:36;;;;;;;18.67;16.70;;;18.60;99.90;18.00;96622.00;;;;5080548;28;20223;-85
2021/06/20 01:14:25;;;;;;;18.17;16.37;;;18.50;99.90;17.90;96624.00;;;;5096423;28;20257;-90
2021/06/20 01:17:17;;;;;;;23.37;18.33;;;18.40;99.90;18.00;96620.00;;;;5096193;28;20697;-86
2021/06/20 01:20:11;;;;;;;18.53;16.87;;;18.30;99.90;17.90;96622.00;;;;5094485;28;20207;-87
2021/06/20 01:23:02;;;;;;;19.30;17.00;;;18.30;99.90;17.90;96624.00;;;;5076290;28;20220;-90
2021/06/20 01:25:51;;;;;;;19.97;18.07;;;18.20;99.90;17.90;96629.00;;;;5075307;28;20219;-87
2021/06/20 01:28:49;;;;;;;22.87;19.50;;;18.20;99.90;17.90;96623.00;;;;5077052;28;20219;-86
2021/06/20 01:31:38;;;;;;;19.83;17.90;;;18.20;99.90;18.00;96615.00;;;;5082854;28;20273;-87
2021/06/20 01:34:27;;;;;;;19.03;17.00;;;18.20;99.90;18.10;96615.00;;;;5094592;28;20195;-86
2021/06/20 01:37:18;;;;;;;21.80;19.70;;;18.20;99.90;18.20;96612.00;;;;5094754;28;20225;-86
2021/06/20 01:40:12;;;;;;;19.27;17.47;;;18.30;99.90;18.20;96601.00;;;;5095457;28;20195;-86
2021/06/20 01:43:02;;;;;;;19.47;17.63;;;18.30;99.90;18.20;96601.00;;;;5084746;28;20223;-88
2021/06/20 01:45:51;;;;;;;18.00;16.27;;;18.30;99.90;18.10;96604.00;;;;5094276;28;20213;-86
2021/06/20 01:48:40;;;;;;;22.07;16.87;;;18.30;99.90;17.90;96598.00;;;;5094173;28;20215;-88
2021/06/20 01:51:29;;;;;;;17.27;15.70;;;18.30;99.90;17.70;96604.00;;;;5095392;28;20219;-86
2021/06/20 01:54:18;;;;;;;24.70;17.17;;;18.20;99.90;17.60;96602.00;;;;5088129;28;20196;-85
2021/06/20 01:57:08;;;;;;;18.63;16.60;;;18.10;99.90;17.60;96598.00;;;;5076915;28;20663;-86
2021/06/20 02:00:00;;;;;;;19.17;17.27;;;18.00;99.90;17.50;96599.00;;;;5074686;28;20204;-86
2021/06/20 02:02:49;;;;;;;18.97;17.13;;;17.90;99.90;17.50;96593.00;;;;5075979;28;20216;-85
2021/06/20 02:05:39;;;;;;;20.20;18.10;;;17.90;99.90;17.60;96598.00;;;;5085334;28;20316;-85
2021/06/20 02:08:28;;;;;;;17.07;15.47;;;17.90;99.90;17.40;96588.00;;;;5097211;28;20219;-85
2021/06/20 02:11:17;;;;;;;20.47;18.33;;;17.80;99.90;17.30;96593.00;;;;5095310;28;20230;-86
2021/06/20 02:14:08;;;;;;;18.87;16.97;;;17.70;99.90;17.40;96584.00;;;;5095579;28;20203;-87
2021/06/20 02:16:57;;;;;;;21.70;19.50;;;17.70;99.90;17.40;96590.00;;;;5095608;28;20566;-86
2021/06/20 02:19:46;;;;;;;20.13;17.00;;;17.70;99.90;17.50;96586.00;;;;5093413;28;20637;-86
2021/06/20 02:22:36;;;;;;;19.37;17.43;;;17.70;99.90;17.50;96588.00;;;;5093900;28;20223;-87
2021/06/20 02:25:26;;;;;;;22.37;18.27;;;17.70;99.90;17.60;96586.00;;;;5073655;28;20211;-87
2021/06/20 02:28:15;;;;;;;20.40;18.50;;;17.70;99.90;17.70;96582.00;;;;5081331;28;20208;-89
2021/06/20 02:31:06;;;;;;;20.83;18.80;;;17.80;99.90;17.70;96577.00;;;;5088518;28;20266;-86
2021/06/20 02:33:55;;;;;;;18.73;16.83;;;17.80;99.90;17.60;96567.00;;;;5074122;28;20212;-88
2021/06/20 02:36:47;;;;;;;20.97;16.73;;;17.80;99.90;17.60;96567.00;;;;5072592;28;20200;-86
2021/06/20 02:39:37;;;;;;;20.17;17.93;;;17.80;99.90;17.50;96562.00;;;;5082766;28;20222;-85
2021/06/20 02:42:26;;;;;;;19.40;17.40;;;17.80;99.90;17.50;96560.00;;;;5079043;28;20280;-88
2021/06/20 02:45:18;;;;;;;19.97;17.43;;;17.80;99.90;17.40;96557.00;;;;5094955;28;20192;-85
2021/06/20 02:48:10;;;;;;;20.20;18.10;;;17.80;99.90;17.30;96568.00;;;;5095884;28;20207;-88
2021/06/20 02:50:59;;;;;;;20.73;18.40;;;17.70;99.90;17.20;96560.00;;;;5079522;28;20196;-86
2021/06/20 02:53:48;;;;;;;19.57;17.50;;;17.60;99.90;17.20;96567.00;;;;5074077;28;20671;-87
2021/06/20 02:56:37;;;;;;;20.67;18.47;;;17.60;99.90;17.30;96558.00;;;;5073723;28;20203;-86
2021/06/20 02:59:26;;;;;;;20.37;18.33;;;17.60;99.90;17.30;96559.00;;;;5073977;28;20208;-87
2021/06/20 03:02:16;;;;;;;18.83;17.03;;;17.60;99.90;17.20;96557.00;;;;5072447;28;20222;-88
2021/06/20 03:05:08;;;;;;;20.50;18.40;;;17.50;99.90;17.20;96554.00;;;;5072987;28;20200;-86
2021/06/20 03:07:57;;;;;;;19.87;17.97;;;17.50;99.90;17.00;96553.00;;;;5089997;28;20199;-86
2021/06/20 03:10:46;;;;;;;19.90;17.43;;;17.40;99.90;17.10;96549.00;;;;5073404;28;20204;-87
2021/06/20 03:13:36;;;;;;;20.13;18.23;;;17.40;99.90;17.30;96554.00;;;;5073755;28;20200;-86
2021/06/20 03:16:25;;;;;;;19.07;17.17;;;17.40;99.90;17.30;96552.00;;;;5073573;28;20204;-88
2021/06/20 03:19:15;;;;;;;20.87;18.67;;;17.40;99.90;17.40;96549.00;;;;5073451;28;20196;-86
2021/06/20 03:22:06;;;;;;;21.20;19.00;;;17.50;99.90;17.40;96551.00;;;;5074656;28;20220;-86
2021/06/20 03:24:57;;;;;;;20.90;18.80;;;17.50;99.90;17.50;96552.00;;;;5074044;28;20200;-87
2021/06/20 03:27:46;;;;;;;19.03;16.80;;;17.60;99.90;17.50;96547.00;;;;5091296;28;20225;-87
2021/06/20 03:30:36;;;;;;;19.20;17.20;;;17.60;99.90;17.30;96551.00;;;;5061022;28;20578;-86
2021/06/20 03:33:25;;;;;;;20.23;18.27;;;17.60;99.90;17.30;96555.00;;;;5075246;28;20212;-87
2021/06/20 03:36:15;;;;;;;20.87;18.23;;;17.60;99.90;17.20;96555.00;;;;5081454;28;20582;-86
2021/06/20 03:39:07;;;;;;;19.50;17.50;;;17.50;99.90;17.10;96550.00;;;;5093414;28;20203;-86
2021/06/20 03:41:56;;;;;;;21.13;18.20;;;17.50;99.90;17.00;96545.00;;;;5093474;28;20226;-88
2021/06/20 03:44:46;;;;;;;21.70;19.60;;;17.40;99.90;16.90;96532.00;;;;5085304;28;20587;-87
2021/06/20 03:47:35;;;;;;;21.07;18.80;;;17.40;99.90;17.00;96541.00;;;;5092693;28;20196;-86
2021/06/20 03:50:25;;;;;;;20.90;18.83;;;17.40;99.90;17.10;96549.00;;;;5091713;28;20219;-87
2021/06/20 03:53:14;;;;;;;20.40;18.30;;;17.40;99.90;17.10;96543.00;;;;5086451;28;20223;-86
2021/06/20 03:56:06;;;;;;;18.73;16.73;;;17.40;99.90;17.00;96559.00;;;;5083600;28;20196;-85
2021/06/20 03:58:55;;;;;;;19.97;17.87;;;17.40;99.90;17.10;96561.00;;;;5072663;28;20215;-87
2021/06/20 04:01:44;;;;;;;22.50;19.17;;;17.40;99.90;17.30;96555.00;;;;5071698;28;20219;-88
2021/06/20 04:04:35;;;;;;;18.43;16.73;;;17.40;99.90;17.40;96548.00;;;;5072760;28;20229;-86
2021/06/20 04:07:24;;;;;;;19.77;17.67;;;17.50;99.90;17.60;96547.00;;;;5081710;28;20195;-89
2021/06/20 04:10:14;;;;;;;20.97;18.23;;;17.50;99.90;17.60;96562.00;;;;5093089;28;20624;-86
2021/06/20 04:13:05;;;;;;;22.43;19.77;;;17.70;99.90;17.70;96564.00;;;;5096640;28;20219;-86
2021/06/20 04:15:54;;;;;;;20.73;18.63;;;17.80;99.90;17.80;96554.00;;;;5097391;28;20239;-86
2021/06/20 04:18:43;;;;;;;20.53;18.50;;;17.90;99.90;18.00;96554.00;;;;5097735;28;20199;-86
2021/06/20 04:21:32;;;;;;;21.80;19.23;;;18.00;99.90;18.20;96553.00;;;;5094453;28;20231;-88
2021/06/20 04:24:44;;;;;;;20.33;18.37;;;18.10;99.90;18.30;96549.00;;;;5096404;28;20704;-88
2021/06/20 04:27:33;;;;;;;19.00;16.40;;;18.20;99.90;18.30;96544.00;;;;5096812;28;20199;-86
2021/06/20 04:30:24;;;;;;;23.90;17.93;;;18.30;99.90;18.30;96551.00;;;;5096110;28;20230;-88
2021/06/20 04:33:14;;;;;;;18.17;16.37;;;18.40;99.90;18.30;96550.00;;;;5097186;28;20223;-87
2021/06/20 04:36:03;;;;;;;20.57;17.40;;;18.40;99.90;18.40;96564.00;;;;5095884;28;20196;-90
2021/06/20 04:38:52;;;;;;;17.97;16.20;;;18.50;99.90;18.40;96550.00;;;;5099555;28;20231;-86
2021/06/20 04:41:41;;;;;;;19.00;17.10;;;18.50;99.90;18.50;96541.00;;;;5096910;28;20223;-91
2021/06/20 04:44:45;;;;;;;20.80;17.80;;;18.60;99.90;18.50;96548.00;;;;5080024;28;20196;-86
2021/06/20 04:47:37;;;;;;;20.17;17.17;;;18.70;99.90;18.70;96557.00;;;;5092652;28;20224;-86
2021/06/20 04:50:26;;;;;;;18.50;16.70;;;18.70;99.90;18.70;96557.00;;;;5087543;28;20219;-86
2021/06/20 04:53:16;;;;;;;20.20;18.30;;;18.80;99.90;18.80;96557.00;;;;5083745;28;20217;-87
2021/06/20 04:56:06;;;;;;;20.77;18.67;;;18.80;99.90;18.80;96563.00;;;;5079947;28;20196;-86
2021/06/20 04:58:55;;;;;;;21.13;18.93;;;18.90;99.90;18.80;96568.00;;;;5079288;28;20196;-86
2021/06/20 05:01:44;;;;;;;20.17;18.10;;;18.90;99.90;18.90;96566.00;;;;5081712;28;20703;-86
2021/06/20 05:04:35;;;;;;;20.57;18.53;;;19.00;99.90;18.90;96556.00;;;;5086464;28;20206;-87
2021/06/20 05:07:24;;;;;;;21.63;19.50;;;19.00;99.90;18.90;96557.00;;;;5087616;28;20200;-88
2021/06/20 05:10:13;;;;;;;20.00;17.97;;;19.10;99.90;18.90;96558.00;;;;5078213;28;20227;-86
2021/06/20 05:13:02;;;;;;;21.10;19.00;;;19.10;99.90;19.00;96542.00;;;;5098565;28;20617;-86
2021/06/20 05:15:51;;;;;;;27.10;24.27;;;19.10;99.90;19.10;96549.00;;;;5086517;28;20291;-91
2021/06/20 05:18:40;;;;;;;20.77;18.83;;;19.20;99.90;19.30;96541.00;;;;5096578;28;20206;-88
2021/06/20 05:21:34;;;;;;;22.47;20.27;;;19.30;99.90;19.30;96536.00;;;;5093222;28;20233;-86
2021/06/20 05:24:24;;;;;;;23.07;20.60;;;19.30;99.90;19.50;96539.00;;;;5079986;28;21451;-86
2021/06/20 05:27:13;;;;;;;20.43;18.57;;;19.50;99.90;19.60;96543.00;;;;5076955;28;20196;-86
2021/06/20 05:30:02;;;;;;;22.53;20.33;;;19.60;99.90;19.80;96533.00;;;;5077400;28;20220;-88
2021/06/20 05:32:53;;;;;;;21.73;19.67;;;19.70;99.90;19.90;96538.00;;;;5096519;28;20682;-85
2021/06/20 05:35:42;;;;;;;21.37;18.93;;;19.80;99.90;19.90;96537.00;;;;5095005;28;20782;-88
2021/06/20 05:38:33;;;;;;;22.63;19.47;;;20.00;99.90;20.10;96536.00;;;;5093165;28;20752;-87
2021/06/20 05:41:22;;;;;;;20.80;18.73;;;20.00;99.90;20.20;96538.00;;;;5081880;28;20223;-88
2021/06/20 05:44:11;;;;;;;21.50;19.20;;;20.10;99.90;20.40;96543.00;;;;5081943;28;20225;-87
2021/06/20 05:47:02;;;;;;;20.57;18.43;;;20.20;99.90;20.70;96547.00;;;;5091818;28;20203;-88
2021/06/20 05:49:51;;;;;;;22.53;18.87;;;20.40;99.90;20.90;96537.00;;;;5089817;28;20251;-87
2021/06/20 05:52:40;;;;;;;20.43;18.33;;;20.60;99.90;21.00;96539.00;;;;5078338;28;20228;-86
2021/06/20 05:55:31;;;;;;;19.93;17.33;;;20.80;99.90;21.10;96533.00;;;;5088386;28;20237;-88
2021/06/20 05:58:20;;;;;;;21.10;19.10;;;20.90;99.90;21.50;96539.00;;;;5092976;28;20286;-85
2021/06/20 06:01:09;;;;;;;20.90;18.73;;;21.10;99.90;21.90;96530.00;;;;5072420;28;20644;-87
2021/06/20 06:03:58;;;;;;;19.23;17.23;;;21.40;99.90;22.20;96543.00;;;;5083539;28;20214;-86
2021/06/20 06:06:48;;;;;;;17.93;16.23;;;21.60;99.90;22.20;96546.00;;;;5078367;28;20200;-87
2021/06/20 06:09:38;;;;;;;18.77;16.87;;;21.90;99.90;22.50;96539.00;;;;5084982;28;20222;-86
2021/06/20 06:12:29;;;;;;;19.17;17.37;;;22.10;99.90;22.50;96546.00;;;;5093058;28;20231;-87
2021/06/20 06:15:18;;;;;;;18.80;17.00;;;22.20;99.90;22.50;96536.00;;;;5092265;28;20199;-86
2021/06/20 06:18:08;;;;;;;18.97;16.10;;;22.30;99.90;22.70;96546.00;;;;5074453;28;20215;-88
2021/06/20 06:20:57;;;;;;;17.40;15.77;;;22.50;99.90;22.90;96545.00;;;;5073429;28;20204;-87
2021/06/20 06:23:46;;;;;;;17.07;15.57;;;22.60;99.90;23.10;96537.00;;;;5092572;28;20565;-87
2021/06/20 06:26:37;;;;;;;18.33;16.63;;;22.70;99.90;23.30;96541.00;;;;5080407;28;20210;-86
2021/06/20 06:29:27;;;;;;;17.13;15.63;;;22.90;99.90;23.50;96543.00;;;;5088802;28;20207;-88
2021/06/20 06:32:17;;;;;;;16.73;14.93;;;23.10;99.90;23.70;96539.00;;;;5073166;28;20594;-84
2021/06/20 06:35:08;;;;;;;16.27;14.77;;;23.30;99.90;23.90;96538.00;;;;5071060;28;20200;-83
2021/06/20 06:37:57;;;;;;;17.87;16.07;;;23.40;99.90;24.10;96541.00;;;;5093906;28;20285;-84
2021/06/20 06:40:47;;;;;;;16.80;15.17;;;23.60;99.90;24.10;96541.00;;;;5087691;28;20211;-84
2021/06/20 06:43:36;;;;;;;16.60;15.07;;;23.80;99.90;24.40;96529.00;;;;5073376;28;20207;-85
2021/06/20 06:46:26;;;;;;;16.47;14.97;;;23.90;99.90;24.50;96532.00;;;;5074954;28;20204;-85
2021/06/20 06:49:16;;;;;;;15.73;14.27;;;24.10;99.90;24.70;96532.00;;;;5081813;28;20206;-85
2021/06/20 06:52:05;;;;;;;16.00;14.60;;;24.20;99.90;24.80;96529.00;;;;5094327;28;20227;-86
2021/06/20 06:54:55;;;;;;;15.83;14.30;;;24.40;99.90;24.90;96533.00;;;;5094571;28;20201;-85
2021/06/20 06:57:44;;;;;;;16.63;15.03;;;24.50;99.90;25.10;96533.00;;;;5074042;28;20215;-84
2021/06/20 07:00:33;;;;;;;15.40;13.87;;;24.60;99.90;25.30;96537.00;;;;5081695;28;20211;-87
2021/06/20 07:03:24;;;;;;;14.50;13.20;;;24.80;99.90;25.40;96542.00;;;;5081655;28;20214;-85
2021/06/20 07:06:13;;;;;;;15.90;14.50;;;25.00;99.90;25.40;96538.00;;;;5084971;28;20208;-86
2021/06/20 07:09:02;;;;;;;14.80;13.40;;;25.10;99.90;25.60;96533.00;;;;5086512;28;20214;-87
2021/06/20 07:11:51;;;;;;;15.37;14.07;;;25.20;99.90;25.80;96531.00;;;;5085230;28;20268;-86
2021/06/20 07:14:41;;;;;;;15.07;13.60;;;25.40;99.90;25.80;96527.00;;;;5100898;28;20217;-85
2021/06/20 07:17:30;;;;;;;15.67;14.27;;;25.40;99.90;26.00;96518.00;;;;5100244;28;20278;-87
2021/06/20 07:20:20;;;;;;;16.23;14.53;;;25.60;99.90;26.00;96513.00;;;;5097155;28;20204;-85
2021/06/20 07:23:10;;;;;;;16.17;14.50;;;25.70;99.90;26.10;96509.00;;;;5095582;28;20219;-88
2021/06/20 07:26:01;;;;;;;16.20;14.80;;;25.80;99.90;26.40;96501.00;;;;5101313;28;20204;-85
2021/06/20 07:28:49;;;;;;;16.67;14.97;;;25.90;99.90;26.50;96497.00;;;;5101554;28;20201;-85
2021/06/20 07:31:39;;;;;;;14.47;13.17;;;26.10;99.90;26.80;96500.00;;;;5101251;28;20227;-85
2021/06/20 07:34:28;;;;;;;13.70;12.30;;;26.30;99.90;26.70;96500.00;;;;5102559;28;20264;-87
2021/06/20 07:37:18;;;;;;;13.07;11.87;;;26.40;99.90;26.80;96503.00;;;;5100623;28;20559;-85
2021/06/20 07:40:12;;;;;;;13.67;12.43;;;26.50;99.90;27.00;96505.00;;;;5083095;28;20215;-87
2021/06/20 07:43:02;;;;;;;12.73;11.50;;;26.60;99.90;27.10;96517.00;;;;5092126;28;20229;-85
2021/06/20 07:45:53;;;;;;;13.60;12.27;;;26.80;99.90;26.80;96514.00;;;;5098589;28;20206;-85
2021/06/20 07:48:42;;;;;;;13.60;11.90;;;26.80;99.90;26.40;96519.00;;;;5085408;28;20210;-88
2021/06/20 07:51:31;;;;;;;13.77;12.60;;;26.70;99.90;26.80;96521.00;;;;5100346;28;20233;-87
2021/06/20 07:54:21;;;;;;;12.53;11.47;;;26.80;99.90;27.00;96526.00;;;;5097961;28;20199;-86
2021/06/20 07:57:11;;;;;;;13.20;12.10;;;26.70;99.90;27.00;96535.00;;;;5081721;28;20254;-86
2021/06/20 08:00:00;;;;;;;13.50;12.10;;;26.80;99.90;27.00;96532.00;;;;5078840;28;20197;-85
2021/06/20 08:02:49;;;;;;;16.57;12.93;;;26.90;99.90;27.70;96528.00;;;;5088076;28;20225;-86
2021/06/20 08:05:38;;;;;;;13.13;11.93;;;27.10;99.90;28.00;96522.00;;;;5097628;28;20214;-85
2021/06/20 08:08:27;;;;;;;15.57;11.87;;;27.30;99.90;28.30;96507.00;;;;5097292;28;20263;-87
2021/06/20 08:11:18;;;;;;;12.43;11.37;;;27.50;99.90;28.40;96501.00;;;;5086494;28;20233;-86
2021/06/20 08:14:07;;;;;;;13.60;12.30;;;27.80;99.90;28.60;96495.00;;;;5086413;28;20259;-86
2021/06/20 08:17:03;;;;;;;14.27;12.77;;;28.00;99.90;28.70;96490.00;;;;5077201;28;20206;-86
2021/06/20 08:19:53;;;;;;;13.60;12.30;;;28.20;99.90;28.90;96480.00;;;;5096051;28;20222;-88
2021/06/20 08:22:43;;;;;;;12.83;11.73;;;28.40;99.90;28.70;96462.00;;;;5095960;28;20233;-85
2021/06/20 08:25:32;;;;;;;12.17;11.07;;;28.50;99.90;29.20;96459.00;;;;5094650;28;20275;-86
2021/06/20 08:28:23;;;;;;;13.13;11.83;;;28.60;99.90;29.10;96456.00;;;;5083352;28;20195;-85
2021/06/20 08:31:12;;;;;;;12.73;11.63;;;28.80;99.90;29.20;96459.00;;;;5085594;28;20196;-88
2021/06/20 08:34:02;;;;;;;12.63;11.43;;;28.80;99.90;28.60;96460.00;;;;5088074;28;20270;-85
2021/06/20 08:36:51;;;;;;;14.27;12.53;;;28.80;99.90;28.40;96469.00;;;;5081517;28;20219;-86
2021/06/20 08:39:40;;;;;;;12.43;11.30;;;28.60;99.90;28.30;96453.00;;;;5095026;28;20208;-86
2021/06/20 08:42:29;;;;;;;13.37;11.97;;;28.50;99.90;28.70;96454.00;;;;5088938;28;20216;-85
2021/06/20 08:45:19;;;;;;;13.00;11.90;;;28.60;99.90;29.30;96451.00;;;;5083663;28;20581;-86
2021/06/20 08:48:13;;;;;;;15.53;12.50;;;28.70;99.90;29.60;96456.00;;;;5081054;28;20572;-86
2021/06/20 08:51:02;;;;;;;11.90;10.80;;;28.90;99.90;29.90;96452.00;;;;5079983;28;20218;-84
2021/06/20 08:53:51;;;;;;;12.80;11.60;;;29.10;99.90;30.00;96444.00;;;;5086780;28;20205;-87
2021/06/20 08:56:41;;;;;;;12.00;10.85;;;29.30;99.90;30.40;96442.00;;;;5087205;28;20199;-84
2021/06/20 08:59:30;;;;;;;13.25;11.85;;;29.60;99.90;30.70;96433.00;;;;5088735;28;20224;-86
2021/06/20 09:02:26;;;;;;;13.73;12.43;;;29.80;99.90;30.90;96428.00;;;;5088220;28;20225;-86
2021/06/20 09:05:16;;;;;;;12.93;11.60;;;30.10;99.90;30.50;96432.00;;;;5093331;28;20194;-84
2021/06/20 09:08:16;;;;;;;10.90;10.00;;;30.30;97.10;30.90;96431.00;;;;5094362;28;20207;-85
2021/06/20 09:11:05;;;;;;;12.70;11.50;;;30.40;96.70;31.00;96429.00;;;;5093317;28;20205;-87
2021/06/20 09:14:06;;;;;;;11.07;9.80;;;30.50;95.50;30.90;96421.00;;;;5092257;28;20287;-85
2021/06/20 09:16:56;;;;;;;13.02;11.90;;;30.70;93.70;31.50;96415.00;;;;5086988;28;20210;-86
2021/06/20 09:19:46;;;;;;;15.68;11.80;;;30.80;94.30;31.40;96415.00;;;;5102885;28;20198;-86
2021/06/20 09:22:36;;;;;;;11.32;10.23;;;31.00;94.20;30.50;96430.00;;;;5088551;28;20236;-86
2021/06/20 09:25:27;;;;;;;12.05;11.10;;;30.90;91.00;30.00;96419.00;;;;5093896;28;20234;-86
2021/06/20 09:28:16;;;;;;;12.18;10.98;;;30.70;90.60;30.80;96435.00;;;;5087648;28;20208;-86
2021/06/20 09:31:07;;;;;;;12.65;11.48;;;30.60;92.50;31.20;96437.00;;;;5079765;28;20215;-84
2021/06/20 09:34:01;;;;;;;12.98;11.68;;;30.70;92.80;31.60;96432.00;;;;5084708;28;20239;-88
2021/06/20 09:37:01;;;;;;;11.57;10.57;;;30.80;92.80;31.80;96435.00;;;;5081511;28;20256;-85
2021/06/20 09:39:54;;;;;;;14.30;12.30;;;31.10;92.20;31.60;96443.00;;;;5085815;28;20213;-86
2021/06/20 09:42:44;;;;;;;11.52;10.38;;;31.20;91.30;31.60;96423.00;;;;5095040;28;21059;-86
2021/06/20 09:45:34;;;;;;;12.98;11.77;;;31.20;91.40;31.80;96436.00;;;;5096184;28;20202;-85
2021/06/20 09:48:26;;;;;;;11.07;10.07;;;31.30;91.30;31.50;96431.00;;;;5078563;28;20707;-84
2021/06/20 09:51:20;;;;;;;11.32;10.27;;;31.30;90.10;31.50;96433.00;;;;5093579;28;20221;-86
2021/06/20 09:54:10;;;;;;;10.57;9.68;;;31.30;88.20;31.70;96432.00;;;;5082531;28;20214;-85
2021/06/20 09:56:59;;;;;;;12.38;11.18;;;31.30;89.10;31.50;96434.00;;;;5083778;28;20203;-85
2021/06/20 09:59:58;;;;;;;12.80;11.57;;;31.30;89.10;31.30;96435.00;;;;5082127;28;20203;-87
2021/06/20 10:02:47;;;;;;;13.23;12.02;;;31.20;88.90;31.50;96411.00;;;;5086124;28;20228;-84
2021/06/20 10:05:37;;;;;;;12.40;11.30;;;31.20;89.00;31.90;96432.00;;;;5097051;28;20209;-84
2021/06/20 10:08:40;;;;;;;13.40;12.07;;;31.30;87.40;31.90;96436.00;;;;5102035;28;20214;-87
2021/06/20 10:11:41;;;;;;;16.33;13.30;;;31.40;87.90;32.20;96417.00;;;;5083496;28;20356;-85
2021/06/20 10:14:31;;;;;;;12.65;11.35;;;31.50;88.10;32.40;96412.00;;;;5095961;28;20208;-84
2021/06/20 10:17:30;;;;;;;12.52;11.32;;;31.70;87.10;32.90;96425.00;;;;5089001;28;20211;-86
2021/06/20 10:20:20;;;;;;;16.45;12.70;;;32.00;85.80;32.80;96428.00;;;;5097230;28;20207;-88
2021/06/20 10:23:19;;;;;;;12.45;11.35;;;32.10;84.60;32.90;96431.00;;;;5078820;28;20776;-84
2021/06/20 10:26:09;;;;;;;13.10;11.80;;;32.30;85.10;32.90;96431.00;;;;5078595;28;20265;-87
2021/06/20 10:29:02;;;;;;;13.15;11.95;;;32.30;83.80;32.60;96437.00;;;;5077615;28;20207;-87
2021/06/20 10:31:53;;;;;;;11.40;10.45;;;32.30;84.30;32.30;96436.00;;;;5097528;28;20418;-85
2021/06/20 10:34:57;;;;;;;12.68;11.07;;;32.20;82.90;32.50;96419.00;;;;5096030;28;20206;-86
2021/06/20 10:37:47;;;;;;;12.18;11.02;;;32.20;83.40;33.20;96397.00;;;;5079073;28;20210;-86
2021/06/20 10:40:42;;;;;;;14.10;12.85;;;32.40;81.50;34.00;96389.00;;;;5075122;28;20202;-86
2021/06/20 10:43:31;;;;;;;13.20;12.00;;;32.70;80.30;34.40;96390.00;;;;5077968;28;20204;-85
2021/06/20 10:46:21;;;;;;;12.57;11.57;;;33.10;80.80;34.30;96408.00;;;;5079602;28;20204;-87
2021/06/20 10:49:18;;;;;;;12.98;11.85;;;33.40;79.40;32.90;96408.00;;;;5078937;28;20206;-88
2021/06/20 10:52:17;;;;;;;13.00;12.00;;;33.30;75.60;32.60;96378.00;;;;5078963;28;20220;-88
2021/06/20 10:55:11;;;;;;;12.73;11.43;;;33.10;74.10;33.60;96388.00;;;;5096918;28;20199;-86
2021/06/20 10:58:02;;;;;;;11.93;10.98;;;33.10;75.90;33.20;96394.00;;;;5101745;28;20203;-86
2021/06/20 11:00:54;;;;;;;12.68;11.45;;;33.00;74.70;33.10;96389.00;;;;5079984;28;20214;-87
2021/06/20 11:03:48;;;;;;;13.18;11.95;;;32.90;74.80;33.30;96390.00;;;;5097505;28;20210;-85
2021/06/20 11:06:37;;;;;;;13.32;11.93;;;32.90;76.30;33.40;96368.00;;;;5082935;28;20191;-87
2021/06/20 11:09:37;;;;;;;14.75;11.20;;;32.90;76.30;34.00;96370.00;;;;5084006;28;20203;-86
2021/06/20 11:15:31;;;;;;;11.98;10.98;;;33.20;75.90;33.40;96371.00;;;;5082883;28;20521;-87
2021/06/20 11:18:20;;;;;;;13.13;11.68;;;33.20;75.00;33.20;96370.00;;;;5086073;28;20194;-88
2021/06/20 11:21:11;;;;;;;12.90;11.73;;;33.10;74.80;33.10;96363.00;;;;5079843;28;20211;-88
2021/06/20 11:24:00;;;;;;;12.90;11.68;;;33.00;75.70;33.30;96354.00;;;;5091112;28;20203;-88
2021/06/20 11:26:55;;;;;;;11.93;10.93;;;33.00;76.90;33.30;96349.00;;;;5067969;28;20214;-89
2021/06/20 11:29:47;;;;;;;13.98;12.70;;;33.00;76.10;33.60;96340.00;;;;5080344;28;20207;-87
2021/06/20 11:32:36;;;;;;;12.45;11.25;;;33.10;77.60;33.80;96361.00;;;;5085644;28;20612;-86
2021/06/20 11:35:26;;;;;;;11.82;10.93;;;33.30;77.00;32.70;96338.00;;;;5086754;28;20248;-87
2021/06/20 11:38:27;;;;;;;13.57;12.43;;;33.20;74.50;32.90;96355.00;;;;5079422;28;20221;-88
2021/06/20 11:41:23;;;;;;;11.77;10.77;;;33.10;75.10;33.70;96342.00;;;;5091201;28;20312;-86
2021/06/20 11:44:13;;;;;;;12.73;11.60;;;33.20;78.10;33.00;96344.00;;;;5088027;28;20593;-86
2021/06/20 11:47:03;;;;;;;13.05;11.93;;;33.20;75.30;33.60;96349.00;;;;5085395;28;20204;-88
2021/06/20 11:49:54;;;;;;;14.05;12.85;;;33.20;75.60;33.90;96360.00;;;;5089885;28;20208;-86
2021/06/20 11:52:46;;;;;;;13.13;11.98;;;33.30;74.40;33.10;96359.00;;;;5085500;28;20223;-88
2021/06/20 11:55:41;;;;;;;13.13;11.88;;;33.20;71.80;33.50;96358.00;;;;5084285;28;20195;-86
2021/06/20 11:58:30;;;;;;;14.18;12.77;;;33.10;73.30;33.30;96358.00;;;;5092022;28;20203;-88
2021/06/20 12:01:20;;;;;;;13.48;12.38;;;33.00;74.90;33.50;96354.00;;;;5083496;28;20687;-89
2021/06/20 12:04:12;;;;;;;12.68;11.55;;;33.00;75.70;33.70;96358.00;;;;5080374;28;20203;-88
2021/06/20 12:07:08;;;;;;;13.07;11.88;;;33.10;76.20;33.70;96370.00;;;;5086260;28;20210;-87
2021/06/20 12:09:57;;;;;;;12.63;11.13;;;33.20;73.80;33.40;96362.00;;;;5083453;28;20196;-85
2021/06/20 12:12:59;;;;;;;13.82;12.48;;;33.20;72.90;33.20;96367.00;;;;5085527;28;20211;-85
2021/06/20 12:16:00;;;;;;;12.90;11.60;;;33.10;72.80;33.10;96363.00;;;;5084880;28;20251;-85
2021/06/20 12:18:49;;;;;;;12.27;11.27;;;33.00;73.10;32.70;96362.00;;;;5087373;28;20260;-86
2021/06/20 12:21:38;;;;;;;12.48;11.57;;;33.00;73.00;32.40;96367.00;;;;5083652;28;20696;-87
2021/06/20 12:24:40;;;;;;;12.10;10.93;;;32.80;74.00;33.10;96370.00;;;;5083967;28;20200;-86